sensor_id;sensor_type;location;lat;lon;timestamp;P1;durP1;ratioP1;P2;durP2;ratioP2
45198;SDS011;30941;46.422;18.772;2024-01-30T00:01:44;84.32;;;36.88;;
45198;SDS011;30941;46.422;18.772;2024-01-30T00:04:10;82.43;;;36.88;;
45198;SDS011;30941;46.422;18.772;2024-01-30T00:06:35;78.97;;;37.28;;
45198;SDS011;30941;46.422;18.772;2024-01-30T00:09:00;73.72;;;37.72;;
45198;SDS011;30941;46.422;18.772;2024-01-30T00:11:26;77.50;;;35.33;;
45198;SDS011;30941;46.422;18.772;2024-01-30T00:13:51;73.20;;;34.88;;
45198;SDS011;30941;46.422;18.772;2024-01-30T00:16:20;76.50;;;35.80;;
45198;SDS011;30941;46.422;18.772;2024-01-30T00:18:49;72.30;;;34.45;;
45198;SDS011;30941;46.422;18.772;2024-01-30T00:21:15;72.80;;;32.83;;
45198;SDS011;30941;46.422;18.772;2024-01-30T00:23:41;78.72;;;31.85;;
45198;SDS011;30941;46.422;18.772;2024-01-30T00:26:06;64.85;;;31.88;;
45198;SDS011;30941;46.422;18.772;2024-01-30T00:28:31;64.80;;;30.70;;
45198;SDS011;30941;46.422;18.772;2024-01-30T00:30:57;62.25;;;27.48;;
45198;SDS011;30941;46.422;18.772;2024-01-30T00:33:22;50.90;;;27.20;;
45198;SDS011;30941;46.422;18.772;2024-01-30T00:35:47;53.45;;;26.30;;
45198;SDS011;30941;46.422;18.772;2024-01-30T00:38:13;55.97;;;26.02;;
45198;SDS011;30941;46.422;18.772;2024-01-30T00:40:38;52.88;;;26.10;;
45198;SDS011;30941;46.422;18.772;2024-01-30T00:43:03;55.20;;;27.02;;
45198;SDS011;30941;46.422;18.772;2024-01-30T00:45:29;59.10;;;26.95;;
45198;SDS011;30941;46.422;18.772;2024-01-30T00:47:54;53.58;;;26.08;;
45198;SDS011;30941;46.422;18.772;2024-01-30T00:50:19;58.70;;;26.23;;
45198;SDS011;30941;46.422;18.772;2024-01-30T00:52:45;52.47;;;25.75;;
45198;SDS011;30941;46.422;18.772;2024-01-30T00:55:10;59.42;;;27.10;;
45198;SDS011;30941;46.422;18.772;2024-01-30T00:57:36;58.45;;;26.73;;
45198;SDS011;30941;46.422;18.772;2024-01-30T01:00:02;62.47;;;27.70;;
45198;SDS011;30941;46.422;18.772;2024-01-30T01:02:28;61.78;;;27.85;;
45198;SDS011;30941;46.422;18.772;2024-01-30T01:04:53;59.42;;;26.33;;
45198;SDS011;30941;46.422;18.772;2024-01-30T01:07:19;63.65;;;27.48;;
45198;SDS011;30941;46.422;18.772;2024-01-30T01:09:44;70.70;;;28.13;;
45198;SDS011;30941;46.422;18.772;2024-01-30T01:12:09;66.78;;;29.30;;
45198;SDS011;30941;46.422;18.772;2024-01-30T01:14:35;61.58;;;28.73;;
45198;SDS011;30941;46.422;18.772;2024-01-30T01:17:01;62.88;;;29.35;;
45198;SDS011;30941;46.422;18.772;2024-01-30T01:19:26;61.75;;;28.02;;
45198;SDS011;30941;46.422;18.772;2024-01-30T01:21:52;56.38;;;26.67;;
45198;SDS011;30941;46.422;18.772;2024-01-30T01:24:18;56.72;;;25.52;;
45198;SDS011;30941;46.422;18.772;2024-01-30T01:26:43;60.50;;;27.92;;
45198;SDS011;30941;46.422;18.772;2024-01-30T01:29:09;59.60;;;28.38;;
45198;SDS011;30941;46.422;18.772;2024-01-30T01:31:37;52.45;;;26.20;;
45198;SDS011;30941;46.422;18.772;2024-01-30T01:34:09;61.90;;;24.70;;
45198;SDS011;30941;46.422;18.772;2024-01-30T01:36:37;57.08;;;26.17;;
45198;SDS011;30941;46.422;18.772;2024-01-30T01:39:02;47.42;;;23.83;;
45198;SDS011;30941;46.422;18.772;2024-01-30T01:41:34;51.33;;;25.10;;
45198;SDS011;30941;46.422;18.772;2024-01-30T01:43:59;48.10;;;23.45;;
45198;SDS011;30941;46.422;18.772;2024-01-30T01:46:29;52.83;;;26.63;;
45198;SDS011;30941;46.422;18.772;2024-01-30T01:48:55;47.45;;;25.35;;
45198;SDS011;30941;46.422;18.772;2024-01-30T01:51:22;49.88;;;24.80;;
45198;SDS011;30941;46.422;18.772;2024-01-30T01:53:48;51.05;;;24.75;;
45198;SDS011;30941;46.422;18.772;2024-01-30T01:56:13;50.85;;;23.98;;
45198;SDS011;30941;46.422;18.772;2024-01-30T01:58:39;46.85;;;25.48;;
45198;SDS011;30941;46.422;18.772;2024-01-30T02:01:05;53.28;;;25.08;;
45198;SDS011;30941;46.422;18.772;2024-01-30T02:03:30;52.70;;;25.27;;
45198;SDS011;30941;46.422;18.772;2024-01-30T02:05:56;58.15;;;28.38;;
45198;SDS011;30941;46.422;18.772;2024-01-30T02:08:22;58.75;;;28.42;;
45198;SDS011;30941;46.422;18.772;2024-01-30T02:10:48;59.80;;;29.05;;
45198;SDS011;30941;46.422;18.772;2024-01-30T02:13:13;58.45;;;27.35;;
45198;SDS011;30941;46.422;18.772;2024-01-30T02:15:38;52.53;;;25.73;;
45198;SDS011;30941;46.422;18.772;2024-01-30T02:18:04;47.38;;;23.05;;
45198;SDS011;30941;46.422;18.772;2024-01-30T02:20:30;49.92;;;24.17;;
45198;SDS011;30941;46.422;18.772;2024-01-30T02:22:56;46.58;;;22.25;;
45198;SDS011;30941;46.422;18.772;2024-01-30T02:25:30;52.10;;;25.45;;
45198;SDS011;30941;46.422;18.772;2024-01-30T02:27:56;64.13;;;31.90;;
45198;SDS011;30941;46.422;18.772;2024-01-30T02:30:22;56.63;;;28.42;;
45198;SDS011;30941;46.422;18.772;2024-01-30T02:32:47;57.08;;;27.77;;
45198;SDS011;30941;46.422;18.772;2024-01-30T02:35:12;60.17;;;32.28;;
45198;SDS011;30941;46.422;18.772;2024-01-30T02:37:38;77.03;;;37.33;;
45198;SDS011;30941;46.422;18.772;2024-01-30T02:40:03;74.90;;;34.67;;
45198;SDS011;30941;46.422;18.772;2024-01-30T02:42:29;72.43;;;35.47;;
45198;SDS011;30941;46.422;18.772;2024-01-30T02:44:54;72.55;;;32.85;;
45198;SDS011;30941;46.422;18.772;2024-01-30T02:47:20;75.68;;;35.08;;
45198;SDS011;30941;46.422;18.772;2024-01-30T02:49:45;68.05;;;32.38;;
45198;SDS011;30941;46.422;18.772;2024-01-30T02:52:10;53.78;;;27.48;;
45198;SDS011;30941;46.422;18.772;2024-01-30T02:54:36;58.03;;;26.70;;
45198;SDS011;30941;46.422;18.772;2024-01-30T02:57:01;54.00;;;26.98;;
45198;SDS011;30941;46.422;18.772;2024-01-30T02:59:26;49.80;;;25.95;;
45198;SDS011;30941;46.422;18.772;2024-01-30T03:01:52;47.78;;;25.85;;
45198;SDS011;30941;46.422;18.772;2024-01-30T03:04:17;52.78;;;26.05;;
45198;SDS011;30941;46.422;18.772;2024-01-30T03:06:45;54.25;;;24.50;;
45198;SDS011;30941;46.422;18.772;2024-01-30T03:09:12;53.05;;;25.38;;
45198;SDS011;30941;46.422;18.772;2024-01-30T03:11:37;55.50;;;25.67;;
45198;SDS011;30941;46.422;18.772;2024-01-30T03:14:02;53.00;;;27.02;;
45198;SDS011;30941;46.422;18.772;2024-01-30T03:16:29;54.47;;;28.02;;
45198;SDS011;30941;46.422;18.772;2024-01-30T03:18:54;55.72;;;27.75;;
45198;SDS011;30941;46.422;18.772;2024-01-30T03:21:20;59.35;;;29.90;;
45198;SDS011;30941;46.422;18.772;2024-01-30T03:23:45;57.58;;;28.48;;
45198;SDS011;30941;46.422;18.772;2024-01-30T03:26:10;53.97;;;27.73;;
45198;SDS011;30941;46.422;18.772;2024-01-30T03:28:37;59.92;;;28.25;;
45198;SDS011;30941;46.422;18.772;2024-01-30T03:31:02;56.17;;;26.52;;
45198;SDS011;30941;46.422;18.772;2024-01-30T03:33:28;52.45;;;25.38;;
45198;SDS011;30941;46.422;18.772;2024-01-30T03:35:53;52.78;;;26.10;;
45198;SDS011;30941;46.422;18.772;2024-01-30T03:38:19;55.13;;;28.20;;
45198;SDS011;30941;46.422;18.772;2024-01-30T03:40:44;57.90;;;26.92;;
45198;SDS011;30941;46.422;18.772;2024-01-30T03:43:09;52.38;;;27.80;;
45198;SDS011;30941;46.422;18.772;2024-01-30T03:45:35;60.33;;;28.15;;
45198;SDS011;30941;46.422;18.772;2024-01-30T03:48:00;50.75;;;25.80;;
45198;SDS011;30941;46.422;18.772;2024-01-30T03:50:25;48.92;;;23.77;;
45198;SDS011;30941;46.422;18.772;2024-01-30T03:52:51;41.22;;;22.10;;
45198;SDS011;30941;46.422;18.772;2024-01-30T03:55:16;43.00;;;23.00;;
45198;SDS011;30941;46.422;18.772;2024-01-30T03:57:41;48.70;;;23.73;;
45198;SDS011;30941;46.422;18.772;2024-01-30T04:00:07;51.85;;;26.77;;
45198;SDS011;30941;46.422;18.772;2024-01-30T04:02:33;49.70;;;24.67;;
45198;SDS011;30941;46.422;18.772;2024-01-30T04:04:58;53.95;;;25.67;;
45198;SDS011;30941;46.422;18.772;2024-01-30T04:07:24;50.92;;;26.25;;
45198;SDS011;30941;46.422;18.772;2024-01-30T04:09:49;57.80;;;27.35;;
45198;SDS011;30941;46.422;18.772;2024-01-30T04:12:15;51.05;;;24.98;;
45198;SDS011;30941;46.422;18.772;2024-01-30T04:14:40;46.72;;;24.77;;
45198;SDS011;30941;46.422;18.772;2024-01-30T04:17:05;57.35;;;25.05;;
45198;SDS011;30941;46.422;18.772;2024-01-30T04:19:31;45.53;;;22.00;;
45198;SDS011;30941;46.422;18.772;2024-01-30T04:21:56;41.95;;;22.05;;
45198;SDS011;30941;46.422;18.772;2024-01-30T04:24:21;41.10;;;22.55;;
45198;SDS011;30941;46.422;18.772;2024-01-30T04:26:47;39.92;;;21.58;;
45198;SDS011;30941;46.422;18.772;2024-01-30T04:29:12;39.08;;;21.83;;
45198;SDS011;30941;46.422;18.772;2024-01-30T04:31:37;44.17;;;22.92;;
45198;SDS011;30941;46.422;18.772;2024-01-30T04:34:03;39.38;;;20.95;;
45198;SDS011;30941;46.422;18.772;2024-01-30T04:36:28;45.10;;;21.95;;
45198;SDS011;30941;46.422;18.772;2024-01-30T04:38:53;41.92;;;20.55;;
45198;SDS011;30941;46.422;18.772;2024-01-30T04:41:19;38.65;;;21.40;;
45198;SDS011;30941;46.422;18.772;2024-01-30T04:43:44;37.90;;;20.33;;
45198;SDS011;30941;46.422;18.772;2024-01-30T04:46:09;42.08;;;20.70;;
45198;SDS011;30941;46.422;18.772;2024-01-30T04:48:35;39.75;;;20.85;;
45198;SDS011;30941;46.422;18.772;2024-01-30T04:51:00;47.60;;;23.60;;
45198;SDS011;30941;46.422;18.772;2024-01-30T04:53:29;42.70;;;22.15;;
45198;SDS011;30941;46.422;18.772;2024-01-30T04:55:55;40.45;;;21.15;;
45198;SDS011;30941;46.422;18.772;2024-01-30T04:58:20;39.25;;;20.58;;
45198;SDS011;30941;46.422;18.772;2024-01-30T05:00:45;40.88;;;21.73;;
45198;SDS011;30941;46.422;18.772;2024-01-30T05:03:13;39.17;;;19.98;;
45198;SDS011;30941;46.422;18.772;2024-01-30T05:05:38;34.25;;;19.70;;
45198;SDS011;30941;46.422;18.772;2024-01-30T05:08:04;36.58;;;19.88;;
45198;SDS011;30941;46.422;18.772;2024-01-30T05:10:29;39.00;;;20.13;;
45198;SDS011;30941;46.422;18.772;2024-01-30T05:12:55;47.13;;;21.38;;
45198;SDS011;30941;46.422;18.772;2024-01-30T05:15:20;39.20;;;21.52;;
45198;SDS011;30941;46.422;18.772;2024-01-30T05:17:46;38.28;;;21.15;;
45198;SDS011;30941;46.422;18.772;2024-01-30T05:20:11;39.58;;;21.73;;
45198;SDS011;30941;46.422;18.772;2024-01-30T05:22:37;42.20;;;21.00;;
45198;SDS011;30941;46.422;18.772;2024-01-30T05:25:03;35.60;;;21.70;;
45198;SDS011;30941;46.422;18.772;2024-01-30T05:27:29;44.63;;;24.08;;
45198;SDS011;30941;46.422;18.772;2024-01-30T05:29:54;39.83;;;22.40;;
45198;SDS011;30941;46.422;18.772;2024-01-30T05:32:20;39.60;;;24.35;;
45198;SDS011;30941;46.422;18.772;2024-01-30T05:34:45;45.20;;;27.63;;
45198;SDS011;30941;46.422;18.772;2024-01-30T05:37:10;43.97;;;26.60;;
45198;SDS011;30941;46.422;18.772;2024-01-30T05:39:39;42.65;;;25.15;;
45198;SDS011;30941;46.422;18.772;2024-01-30T05:42:04;54.75;;;25.67;;
45198;SDS011;30941;46.422;18.772;2024-01-30T05:44:30;77.05;;;28.25;;
45198;SDS011;30941;46.422;18.772;2024-01-30T05:46:56;59.50;;;28.20;;
45198;SDS011;30941;46.422;18.772;2024-01-30T05:49:21;66.00;;;28.98;;
45198;SDS011;30941;46.422;18.772;2024-01-30T05:51:46;57.23;;;25.50;;
45198;SDS011;30941;46.422;18.772;2024-01-30T05:54:12;62.78;;;26.27;;
45198;SDS011;30941;46.422;18.772;2024-01-30T05:56:37;45.35;;;22.17;;
45198;SDS011;30941;46.422;18.772;2024-01-30T05:59:02;39.10;;;20.02;;
45198;SDS011;30941;46.422;18.772;2024-01-30T06:01:28;40.85;;;20.70;;
45198;SDS011;30941;46.422;18.772;2024-01-30T06:03:54;51.65;;;24.58;;
45198;SDS011;30941;46.422;18.772;2024-01-30T06:06:20;48.13;;;24.70;;
45198;SDS011;30941;46.422;18.772;2024-01-30T06:08:45;55.05;;;26.45;;
45198;SDS011;30941;46.422;18.772;2024-01-30T06:11:11;78.53;;;37.38;;
45198;SDS011;30941;46.422;18.772;2024-01-30T06:13:37;52.15;;;28.25;;
45198;SDS011;30941;46.422;18.772;2024-01-30T06:16:02;61.20;;;31.60;;
45198;SDS011;30941;46.422;18.772;2024-01-30T06:18:27;55.45;;;27.38;;
45198;SDS011;30941;46.422;18.772;2024-01-30T06:20:55;54.28;;;27.67;;
45198;SDS011;30941;46.422;18.772;2024-01-30T06:23:20;50.33;;;27.73;;
45198;SDS011;30941;46.422;18.772;2024-01-30T06:25:46;47.03;;;26.67;;
45198;SDS011;30941;46.422;18.772;2024-01-30T06:28:12;48.17;;;27.63;;
45198;SDS011;30941;46.422;18.772;2024-01-30T06:30:37;58.88;;;29.08;;
45198;SDS011;30941;46.422;18.772;2024-01-30T06:33:02;49.08;;;27.58;;
45198;SDS011;30941;46.422;18.772;2024-01-30T06:35:28;56.28;;;28.88;;
45198;SDS011;30941;46.422;18.772;2024-01-30T06:37:54;53.40;;;29.52;;
45198;SDS011;30941;46.422;18.772;2024-01-30T06:40:19;57.60;;;32.17;;
45198;SDS011;30941;46.422;18.772;2024-01-30T06:42:44;51.33;;;28.08;;
45198;SDS011;30941;46.422;18.772;2024-01-30T06:45:10;53.63;;;26.63;;
45198;SDS011;30941;46.422;18.772;2024-01-30T06:47:35;52.25;;;26.02;;
45198;SDS011;30941;46.422;18.772;2024-01-30T06:50:00;51.70;;;27.23;;
45198;SDS011;30941;46.422;18.772;2024-01-30T06:52:27;53.63;;;27.17;;
45198;SDS011;30941;46.422;18.772;2024-01-30T06:54:52;46.92;;;25.48;;
45198;SDS011;30941;46.422;18.772;2024-01-30T06:57:17;51.40;;;27.20;;
45198;SDS011;30941;46.422;18.772;2024-01-30T06:59:43;46.05;;;25.92;;
45198;SDS011;30941;46.422;18.772;2024-01-30T07:02:12;49.53;;;25.63;;
45198;SDS011;30941;46.422;18.772;2024-01-30T07:04:37;50.55;;;25.13;;
45198;SDS011;30941;46.422;18.772;2024-01-30T07:07:04;56.95;;;29.65;;
45198;SDS011;30941;46.422;18.772;2024-01-30T07:09:30;59.63;;;32.28;;
45198;SDS011;30941;46.422;18.772;2024-01-30T07:11:56;61.15;;;31.52;;
45198;SDS011;30941;46.422;18.772;2024-01-30T07:14:23;58.17;;;30.15;;
45198;SDS011;30941;46.422;18.772;2024-01-30T07:16:49;47.53;;;26.63;;
45198;SDS011;30941;46.422;18.772;2024-01-30T07:19:15;51.33;;;26.00;;
45198;SDS011;30941;46.422;18.772;2024-01-30T07:21:40;54.88;;;26.48;;
45198;SDS011;30941;46.422;18.772;2024-01-30T07:24:06;50.42;;;26.40;;
45198;SDS011;30941;46.422;18.772;2024-01-30T07:26:31;52.40;;;25.50;;
45198;SDS011;30941;46.422;18.772;2024-01-30T07:28:56;47.88;;;25.75;;
45198;SDS011;30941;46.422;18.772;2024-01-30T07:31:22;51.40;;;25.95;;
45198;SDS011;30941;46.422;18.772;2024-01-30T07:33:48;51.20;;;27.67;;
45198;SDS011;30941;46.422;18.772;2024-01-30T07:36:13;57.13;;;28.38;;
45198;SDS011;30941;46.422;18.772;2024-01-30T07:38:39;52.05;;;26.77;;
45198;SDS011;30941;46.422;18.772;2024-01-30T07:41:05;53.25;;;28.75;;
45198;SDS011;30941;46.422;18.772;2024-01-30T07:43:30;55.20;;;27.05;;
45198;SDS011;30941;46.422;18.772;2024-01-30T07:45:56;48.58;;;26.13;;
45198;SDS011;30941;46.422;18.772;2024-01-30T07:48:21;58.55;;;29.48;;
45198;SDS011;30941;46.422;18.772;2024-01-30T07:50:46;57.22;;;29.25;;
45198;SDS011;30941;46.422;18.772;2024-01-30T07:53:12;59.45;;;29.88;;
45198;SDS011;30941;46.422;18.772;2024-01-30T07:55:37;56.35;;;30.88;;
45198;SDS011;30941;46.422;18.772;2024-01-30T07:58:03;53.35;;;27.45;;
45198;SDS011;30941;46.422;18.772;2024-01-30T08:00:29;52.33;;;28.95;;
45198;SDS011;30941;46.422;18.772;2024-01-30T08:02:55;49.03;;;26.98;;
45198;SDS011;30941;46.422;18.772;2024-01-30T08:05:20;58.58;;;27.20;;
45198;SDS011;30941;46.422;18.772;2024-01-30T08:07:47;51.35;;;27.50;;
45198;SDS011;30941;46.422;18.772;2024-01-30T08:10:13;53.05;;;27.35;;
45198;SDS011;30941;46.422;18.772;2024-01-30T08:12:39;50.92;;;25.20;;
45198;SDS011;30941;46.422;18.772;2024-01-30T08:15:05;53.15;;;27.33;;
45198;SDS011;30941;46.422;18.772;2024-01-30T08:17:30;52.75;;;27.20;;
45198;SDS011;30941;46.422;18.772;2024-01-30T08:19:56;44.78;;;24.45;;
45198;SDS011;30941;46.422;18.772;2024-01-30T08:22:21;43.50;;;22.73;;
45198;SDS011;30941;46.422;18.772;2024-01-30T08:24:46;40.83;;;22.65;;
45198;SDS011;30941;46.422;18.772;2024-01-30T08:27:12;37.80;;;22.80;;
45198;SDS011;30941;46.422;18.772;2024-01-30T08:29:37;39.75;;;22.83;;
45198;SDS011;30941;46.422;18.772;2024-01-30T08:32:03;43.55;;;22.88;;
45198;SDS011;30941;46.422;18.772;2024-01-30T08:34:30;44.72;;;22.25;;
45198;SDS011;30941;46.422;18.772;2024-01-30T08:36:55;39.47;;;21.05;;
45198;SDS011;30941;46.422;18.772;2024-01-30T08:39:20;47.10;;;23.13;;
45198;SDS011;30941;46.422;18.772;2024-01-30T08:41:46;38.50;;;21.95;;
45198;SDS011;30941;46.422;18.772;2024-01-30T08:44:11;41.88;;;23.00;;
45198;SDS011;30941;46.422;18.772;2024-01-30T08:46:37;49.10;;;23.00;;
45198;SDS011;30941;46.422;18.772;2024-01-30T08:49:02;44.42;;;22.17;;
45198;SDS011;30941;46.422;18.772;2024-01-30T08:51:29;44.20;;;21.45;;
45198;SDS011;30941;46.422;18.772;2024-01-30T08:53:55;43.92;;;22.65;;
45198;SDS011;30941;46.422;18.772;2024-01-30T08:56:20;42.00;;;22.02;;
45198;SDS011;30941;46.422;18.772;2024-01-30T08:58:45;43.15;;;21.40;;
45198;SDS011;30941;46.422;18.772;2024-01-30T09:01:11;44.10;;;22.48;;
45198;SDS011;30941;46.422;18.772;2024-01-30T09:03:36;43.42;;;23.30;;
45198;SDS011;30941;46.422;18.772;2024-01-30T09:06:07;42.47;;;22.55;;
45198;SDS011;30941;46.422;18.772;2024-01-30T09:08:33;53.53;;;26.80;;
45198;SDS011;30941;46.422;18.772;2024-01-30T09:10:59;58.15;;;26.48;;
45198;SDS011;30941;46.422;18.772;2024-01-30T09:13:24;54.92;;;27.90;;
45198;SDS011;30941;46.422;18.772;2024-01-30T09:15:49;46.83;;;24.75;;
45198;SDS011;30941;46.422;18.772;2024-01-30T09:18:15;51.75;;;25.38;;
45198;SDS011;30941;46.422;18.772;2024-01-30T09:20:40;51.33;;;24.70;;
45198;SDS011;30941;46.422;18.772;2024-01-30T09:23:05;50.47;;;24.75;;
45198;SDS011;30941;46.422;18.772;2024-01-30T09:25:31;44.28;;;23.25;;
45198;SDS011;30941;46.422;18.772;2024-01-30T09:27:56;47.28;;;22.80;;
45198;SDS011;30941;46.422;18.772;2024-01-30T09:30:22;36.85;;;20.60;;
45198;SDS011;30941;46.422;18.772;2024-01-30T09:32:47;39.58;;;20.33;;
45198;SDS011;30941;46.422;18.772;2024-01-30T09:35:12;38.28;;;20.35;;
45198;SDS011;30941;46.422;18.772;2024-01-30T09:37:38;41.47;;;20.25;;
45198;SDS011;30941;46.422;18.772;2024-01-30T09:40:03;33.13;;;18.95;;
45198;SDS011;30941;46.422;18.772;2024-01-30T09:42:33;36.78;;;19.85;;
45198;SDS011;30941;46.422;18.772;2024-01-30T09:45:03;45.83;;;20.37;;
45198;SDS011;30941;46.422;18.772;2024-01-30T09:47:34;34.50;;;18.17;;
45198;SDS011;30941;46.422;18.772;2024-01-30T09:50:05;45.70;;;19.52;;
45198;SDS011;30941;46.422;18.772;2024-01-30T09:52:31;38.55;;;19.38;;
45198;SDS011;30941;46.422;18.772;2024-01-30T09:54:56;37.72;;;18.92;;
45198;SDS011;30941;46.422;18.772;2024-01-30T09:57:24;39.40;;;19.98;;
45198;SDS011;30941;46.422;18.772;2024-01-30T09:59:51;37.28;;;20.17;;
45198;SDS011;30941;46.422;18.772;2024-01-30T10:02:17;35.60;;;18.35;;
45198;SDS011;30941;46.422;18.772;2024-01-30T10:04:43;37.10;;;19.92;;
45198;SDS011;30941;46.422;18.772;2024-01-30T10:07:08;37.63;;;19.60;;
45198;SDS011;30941;46.422;18.772;2024-01-30T10:09:36;36.08;;;18.65;;
45198;SDS011;30941;46.422;18.772;2024-01-30T10:12:01;35.40;;;18.27;;
45198;SDS011;30941;46.422;18.772;2024-01-30T10:14:28;34.15;;;17.65;;
45198;SDS011;30941;46.422;18.772;2024-01-30T10:16:55;40.15;;;19.20;;
45198;SDS011;30941;46.422;18.772;2024-01-30T10:19:20;35.45;;;18.73;;
45198;SDS011;30941;46.422;18.772;2024-01-30T10:21:46;34.45;;;18.83;;
45198;SDS011;30941;46.422;18.772;2024-01-30T10:24:11;39.78;;;20.20;;
45198;SDS011;30941;46.422;18.772;2024-01-30T10:26:38;38.50;;;21.08;;
45198;SDS011;30941;46.422;18.772;2024-01-30T10:29:04;33.25;;;17.25;;
45198;SDS011;30941;46.422;18.772;2024-01-30T10:31:30;35.83;;;20.02;;
45198;SDS011;30941;46.422;18.772;2024-01-30T10:33:55;34.50;;;18.98;;
45198;SDS011;30941;46.422;18.772;2024-01-30T10:36:21;37.42;;;19.55;;
45198;SDS011;30941;46.422;18.772;2024-01-30T10:38:53;32.55;;;17.75;;
45198;SDS011;30941;46.422;18.772;2024-01-30T10:41:23;38.08;;;20.45;;
45198;SDS011;30941;46.422;18.772;2024-01-30T10:43:55;31.60;;;17.98;;
45198;SDS011;30941;46.422;18.772;2024-01-30T10:46:28;31.20;;;18.48;;
45198;SDS011;30941;46.422;18.772;2024-01-30T10:48:57;33.38;;;18.10;;
45198;SDS011;30941;46.422;18.772;2024-01-30T10:51:23;35.35;;;20.05;;
45198;SDS011;30941;46.422;18.772;2024-01-30T10:53:50;32.83;;;17.95;;
45198;SDS011;30941;46.422;18.772;2024-01-30T10:56:16;30.60;;;17.20;;
45198;SDS011;30941;46.422;18.772;2024-01-30T10:58:41;34.15;;;18.15;;
45198;SDS011;30941;46.422;18.772;2024-01-30T11:01:07;39.97;;;20.40;;
45198;SDS011;30941;46.422;18.772;2024-01-30T11:03:33;35.78;;;19.02;;
45198;SDS011;30941;46.422;18.772;2024-01-30T11:06:01;30.50;;;18.38;;
45198;SDS011;30941;46.422;18.772;2024-01-30T11:08:27;32.55;;;17.58;;
45198;SDS011;30941;46.422;18.772;2024-01-30T11:10:56;30.02;;;18.30;;
45198;SDS011;30941;46.422;18.772;2024-01-30T11:13:27;35.65;;;19.88;;
45198;SDS011;30941;46.422;18.772;2024-01-30T11:15:53;29.17;;;17.30;;
45198;SDS011;30941;46.422;18.772;2024-01-30T11:18:25;31.92;;;17.95;;
45198;SDS011;30941;46.422;18.772;2024-01-30T11:20:51;27.67;;;17.13;;
45198;SDS011;30941;46.422;18.772;2024-01-30T11:23:16;28.05;;;17.20;;
45198;SDS011;30941;46.422;18.772;2024-01-30T11:25:43;27.85;;;17.00;;
45198;SDS011;30941;46.422;18.772;2024-01-30T11:28:13;22.63;;;15.38;;
45198;SDS011;30941;46.422;18.772;2024-01-30T11:30:40;24.75;;;16.02;;
45198;SDS011;30941;46.422;18.772;2024-01-30T11:33:06;23.85;;;16.10;;
45198;SDS011;30941;46.422;18.772;2024-01-30T11:35:45;25.67;;;16.70;;
45198;SDS011;30941;46.422;18.772;2024-01-30T11:38:12;22.20;;;15.35;;
45198;SDS011;30941;46.422;18.772;2024-01-30T11:40:39;23.65;;;16.17;;
45198;SDS011;30941;46.422;18.772;2024-01-30T11:43:05;23.48;;;17.20;;
45198;SDS011;30941;46.422;18.772;2024-01-30T11:45:32;24.23;;;18.00;;
45198;SDS011;30941;46.422;18.772;2024-01-30T11:47:57;21.67;;;16.15;;
45198;SDS011;30941;46.422;18.772;2024-01-30T11:50:25;19.98;;;15.68;;
45198;SDS011;30941;46.422;18.772;2024-01-30T11:52:50;20.77;;;15.45;;
45198;SDS011;30941;46.422;18.772;2024-01-30T11:55:16;22.95;;;16.88;;
45198;SDS011;30941;46.422;18.772;2024-01-30T11:57:41;19.20;;;14.75;;
45198;SDS011;30941;46.422;18.772;2024-01-30T12:00:13;19.88;;;15.55;;
45198;SDS011;30941;46.422;18.772;2024-01-30T12:02:40;18.15;;;14.98;;
45198;SDS011;30941;46.422;18.772;2024-01-30T12:05:06;18.98;;;14.70;;
45198;SDS011;30941;46.422;18.772;2024-01-30T12:07:32;20.05;;;15.85;;
45198;SDS011;30941;46.422;18.772;2024-01-30T12:09:57;19.60;;;15.80;;
45198;SDS011;30941;46.422;18.772;2024-01-30T12:12:24;24.15;;;15.95;;
45198;SDS011;30941;46.422;18.772;2024-01-30T12:14:50;20.45;;;16.58;;
45198;SDS011;30941;46.422;18.772;2024-01-30T12:17:32;19.65;;;15.98;;
45198;SDS011;30941;46.422;18.772;2024-01-30T12:20:14;20.38;;;16.90;;
45198;SDS011;30941;46.422;18.772;2024-01-30T12:22:47;22.23;;;17.08;;
45198;SDS011;30941;46.422;18.772;2024-01-30T12:25:14;21.33;;;16.00;;
45198;SDS011;30941;46.422;18.772;2024-01-30T12:27:44;20.17;;;15.85;;
45198;SDS011;30941;46.422;18.772;2024-01-30T12:30:12;19.35;;;15.88;;
45198;SDS011;30941;46.422;18.772;2024-01-30T12:32:39;19.63;;;15.43;;
45198;SDS011;30941;46.422;18.772;2024-01-30T12:35:12;19.90;;;16.25;;
45198;SDS011;30941;46.422;18.772;2024-01-30T12:37:38;21.58;;;15.60;;
45198;SDS011;30941;46.422;18.772;2024-01-30T12:40:04;19.88;;;15.82;;
45198;SDS011;30941;46.422;18.772;2024-01-30T12:42:31;20.13;;;15.70;;
45198;SDS011;30941;46.422;18.772;2024-01-30T12:44:57;17.60;;;14.40;;
45198;SDS011;30941;46.422;18.772;2024-01-30T12:47:23;21.98;;;15.88;;
45198;SDS011;30941;46.422;18.772;2024-01-30T12:49:49;20.95;;;15.68;;
45198;SDS011;30941;46.422;18.772;2024-01-30T12:52:18;19.67;;;15.98;;
45198;SDS011;30941;46.422;18.772;2024-01-30T12:54:43;21.50;;;15.20;;
45198;SDS011;30941;46.422;18.772;2024-01-30T12:57:09;20.02;;;14.75;;
45198;SDS011;30941;46.422;18.772;2024-01-30T12:59:34;21.30;;;15.65;;
45198;SDS011;30941;46.422;18.772;2024-01-30T13:02:00;23.80;;;15.48;;
45198;SDS011;30941;46.422;18.772;2024-01-30T13:04:26;24.95;;;16.00;;
45198;SDS011;30941;46.422;18.772;2024-01-30T13:06:52;21.67;;;15.05;;
45198;SDS011;30941;46.422;18.772;2024-01-30T13:09:17;24.02;;;15.00;;
45198;SDS011;30941;46.422;18.772;2024-01-30T13:11:43;22.83;;;15.13;;
45198;SDS011;30941;46.422;18.772;2024-01-30T13:14:08;21.85;;;15.23;;
45198;SDS011;30941;46.422;18.772;2024-01-30T13:16:33;28.30;;;16.35;;
45198;SDS011;30941;46.422;18.772;2024-01-30T13:18:59;26.13;;;16.80;;
45198;SDS011;30941;46.422;18.772;2024-01-30T13:21:26;25.77;;;16.02;;
45198;SDS011;30941;46.422;18.772;2024-01-30T13:23:51;26.58;;;16.35;;
45198;SDS011;30941;46.422;18.772;2024-01-30T13:26:19;26.85;;;15.23;;
45198;SDS011;30941;46.422;18.772;2024-01-30T13:28:44;26.83;;;15.77;;
45198;SDS011;30941;46.422;18.772;2024-01-30T13:31:10;24.55;;;16.35;;
45198;SDS011;30941;46.422;18.772;2024-01-30T13:33:35;22.17;;;14.73;;
45198;SDS011;30941;46.422;18.772;2024-01-30T13:36:01;26.92;;;16.15;;
45198;SDS011;30941;46.422;18.772;2024-01-30T13:38:26;24.95;;;15.05;;
45198;SDS011;30941;46.422;18.772;2024-01-30T13:40:51;22.70;;;14.60;;
45198;SDS011;30941;46.422;18.772;2024-01-30T13:43:17;24.10;;;14.65;;
45198;SDS011;30941;46.422;18.772;2024-01-30T13:45:43;33.80;;;15.32;;
45198;SDS011;30941;46.422;18.772;2024-01-30T13:48:08;33.70;;;15.73;;
45198;SDS011;30941;46.422;18.772;2024-01-30T13:50:34;23.48;;;14.52;;
45198;SDS011;30941;46.422;18.772;2024-01-30T13:52:59;23.20;;;13.27;;
45198;SDS011;30941;46.422;18.772;2024-01-30T13:55:25;18.85;;;11.25;;
45198;SDS011;30941;46.422;18.772;2024-01-30T13:57:50;24.42;;;12.77;;
45198;SDS011;30941;46.422;18.772;2024-01-30T14:00:16;18.88;;;12.80;;
45198;SDS011;30941;46.422;18.772;2024-01-30T14:02:41;18.23;;;11.48;;